Iquique, Chile
Current Conditions -  °F | °C
As of 3:00 AM on Sunday 23 Nov 2014 (Local Time) from SCDA Reporting Station
Broken Clouds Broken Clouds  
Wind Chill: 63°   Ceiling: 2500
Heat Index: 63°   Visibility: 6mi
Dew Point: 52°   Wind: 0mph
Humidity: 68%   Direction: NA
Pressure: 29.97"   Gusts: NA
Location:  20.23°S, 70.14°W
Report Text: SCDA 230700Z 00000KT 9999 BKN025 17/11 Q1015
Loading
Personal Weather Stations






























Interactive Weather Map New forecast layout! Learn more

10-Day Weather Forecast

Advertisements
Track Severe Weather on mobile